createdAt,value
2023-08-12T00:00:32.569Z,82
2023-08-12T00:10:32.580Z,80
2023-08-12T00:20:32.509Z,83
2023-08-12T00:30:32.544Z,83
2023-08-12T00:40:32.533Z,82
2023-08-12T00:50:32.500Z,84
2023-08-12T01:00:32.507Z,84
2023-08-12T01:10:32.507Z,82
2023-08-12T01:20:32.489Z,84
2023-08-12T01:30:32.525Z,86
2023-08-12T01:40:32.517Z,85
2023-08-12T01:50:32.481Z,85
2023-08-12T02:00:32.453Z,84
2023-08-12T02:10:32.440Z,86
2023-08-12T02:20:32.498Z,88
2023-08-12T02:30:32.426Z,88
2023-08-12T02:40:32.462Z,88
2023-08-12T02:50:32.439Z,87
2023-08-12T03:00:32.405Z,88
2023-08-12T03:10:32.395Z,89
2023-08-12T03:20:32.412Z,89
2023-08-12T03:30:32.443Z,87
2023-08-12T03:40:32.384Z,89
2023-08-12T03:50:32.385Z,90
2023-08-12T04:00:32.414Z,90
2023-08-12T04:10:32.325Z,88
2023-08-12T04:20:32.476Z,93
2023-08-12T04:30:32.425Z,94
2023-08-12T04:40:32.345Z,95
2023-08-12T04:50:32.358Z,96
2023-08-12T05:00:32.327Z,98
2023-08-12T05:10:32.305Z,99
2023-08-12T05:30:32.315Z,76
2023-08-12T05:40:32.278Z,76
2023-08-12T05:50:32.321Z,78
2023-08-12T06:00:32.267Z,94
2023-08-12T06:10:32.269Z,96
2023-08-12T06:20:32.275Z,96
2023-08-12T06:30:32.276Z,100
2023-08-12T06:40:32.257Z,100
2023-08-12T06:50:32.217Z,100
2023-08-12T07:00:32.234Z,100
2023-08-12T07:10:32.236Z,100
2023-08-12T07:20:32.196Z,100
2023-08-12T07:30:32.216Z,100
2023-08-12T07:40:32.153Z,100
2023-08-12T07:50:32.188Z,100
2023-08-12T08:00:32.171Z,100
2023-08-12T08:10:32.164Z,100
2023-08-12T08:20:32.125Z,100
2023-08-12T08:30:32.161Z,98
2023-08-12T08:40:32.094Z,100
2023-08-12T08:50:32.119Z,96
2023-08-12T09:00:32.068Z,94
2023-08-12T09:10:32.087Z,90
2023-08-12T09:20:32.114Z,86
2023-08-12T09:30:32.073Z,83
2023-08-12T09:40:32.044Z,79
2023-08-12T09:50:32.024Z,72
2023-08-12T10:00:32.038Z,74
2023-08-12T10:10:31.993Z,71
2023-08-12T10:20:31.966Z,66
2023-08-12T10:30:31.943Z,62
2023-08-12T10:40:32.000Z,68
2023-08-12T10:50:31.958Z,60
2023-08-12T11:00:31.946Z,60
2023-08-12T11:10:34.157Z,60
2023-08-12T11:20:32.697Z,59
2023-08-12T11:30:33.100Z,56
2023-08-12T11:40:31.920Z,57
2023-08-12T11:50:31.889Z,54
2023-08-12T12:00:31.896Z,54
2023-08-12T12:10:34.288Z,54
2023-08-12T12:20:31.845Z,56
2023-08-12T12:30:31.891Z,53
2023-08-12T12:40:31.831Z,54
2023-08-12T12:50:31.859Z,56
2023-08-12T13:00:31.826Z,56
2023-08-12T13:10:31.811Z,55
2023-08-12T13:20:31.788Z,58
2023-08-12T13:30:31.811Z,57
2023-08-12T13:40:31.826Z,55
2023-08-12T13:50:31.734Z,58
2023-08-12T14:00:31.792Z,55
2023-08-12T14:10:31.726Z,60
2023-08-12T14:20:31.686Z,63
2023-08-12T14:30:31.721Z,67
2023-08-12T14:40:31.694Z,67
2023-08-12T14:50:33.000Z,69
2023-08-12T15:00:31.683Z,67
2023-08-12T15:10:31.675Z,67
2023-08-12T15:20:32.419Z,63
2023-08-12T15:30:31.619Z,62
2023-08-12T15:40:31.642Z,63
2023-08-12T15:50:31.641Z,55
2023-08-12T16:00:31.587Z,55
2023-08-12T16:10:31.634Z,56
2023-08-12T16:20:31.593Z,57
2023-08-12T16:30:31.580Z,57
2023-08-12T16:40:31.571Z,59
2023-08-12T16:50:31.532Z,59
2023-08-12T17:00:31.982Z,61
2023-08-12T17:10:31.557Z,61
2023-08-12T17:20:31.506Z,66
2023-08-12T17:30:31.522Z,73
2023-08-12T17:40:31.441Z,79
2023-08-12T17:50:31.488Z,91
2023-08-12T18:00:31.486Z,93
2023-08-12T18:10:31.438Z,100
2023-08-12T18:20:31.452Z,100
2023-08-12T18:30:31.471Z,100
2023-08-12T18:40:31.812Z,98
2023-08-12T18:50:31.406Z,95
2023-08-12T19:00:31.409Z,95
2023-08-12T19:10:31.375Z,90
2023-08-12T19:20:31.411Z,88
2023-08-12T19:40:31.331Z,82
2023-08-12T19:50:31.345Z,82
2023-08-12T20:00:31.324Z,81
2023-08-12T20:10:31.299Z,79
2023-08-12T20:20:31.323Z,78
2023-08-12T20:30:31.285Z,78
2023-08-12T20:40:31.296Z,77
2023-08-12T20:50:31.345Z,77
2023-08-12T21:00:31.252Z,76
2023-08-12T21:10:31.268Z,75
2023-08-12T21:20:31.230Z,75
2023-08-12T21:30:31.262Z,74
2023-08-12T21:40:31.250Z,75
2023-08-12T21:50:31.211Z,76
2023-08-12T22:00:31.185Z,78
2023-08-12T22:10:31.191Z,78
2023-08-12T22:20:31.190Z,77
2023-08-12T22:30:31.182Z,77
2023-08-12T22:40:31.188Z,77
2023-08-12T22:50:31.183Z,76
2023-08-12T23:00:31.152Z,75
2023-08-12T23:10:31.117Z,75
2023-08-12T23:20:31.145Z,75
2023-08-12T23:30:31.109Z,74
2023-08-12T23:40:31.127Z,75
2023-08-12T23:50:31.107Z,75
